If you wish to contribute or participate in the discussions about articles you are invited to join SKYbrary as a registered user

 Actions

Sauce Viejo Airport

From SKYbrary Wiki

SAAV
Airport
ICAO: SAAV – IATA: SFN
Summary
Name Sauce Viejo Airport
Region South America and Caribbean
Territory Argentina AR.gif
Location Santa Fe, Santa Fe
Serving Santa Fe
Elevation 16.764 m
55 ft
55 ft16.764 m
Type medium airport
Coordinates 31° 42' 42.00" S, 60° 48' 42.00" W
Runways
Designator Length Width Surface ROPS
3/21 2325 m7,627.953 ft
30 m98.425 ft
ASP /


METAR
Observation SAAV 141010Z 17012KT 8000 NSC 11/07 Q1026
Station Sauce Viejo Aerodrome
Date/Time 14 October 2019 10:10:00
Wind direction 170°
Wind speed 12 kts
Lowest cloud amount nil significant cloud
Temperature 11°C
Dew point 7°C
Humidity 76%
QNH 1026 hPa
Weather condition n/a

Airport serving city of Santa Fe, Santa Fe Province, Argentina.

Climatology

Humid Sub-tropical climate (Köppen climate classification Cfa).

Maps

Terrain

Loading map...

Airport Layout

Loading map...


Accidents & Serious Incidents at or in vicinity of SAAV

None on SKYbrary